^^
Station Historical Data
Daily Summary for October 10, 2017 Units:  English    Metric   Both
« Previous Day
Next Day »
Daily Weekly Monthly Yearly Custom
  High: Low: Average:
Temperature: 79.5 °F 63.3 °F 70 °F
Dew Point: 71.4 °F 59.7 °F 63 °F
Humidity: 95% 53% 80%
Wind Speed: 3.0mph 0.0mph 0.5mph
Wind Gust: 10.0mph - -
Wind- - SSW
Pressure: 30.11 in 29.93 in -
Precipitation: 0.00 in    
Historical Graphs
 
 
Tabular Data for October 10, 2017
Time Temperature Dew Point Pressure Wind Wind Speed Wind Gust Humidity Rainfall Rate (Hourly) Conditions
00:00 72.9 °F 71.4 °F 29.93 in SSE 1.0 mph 5.0 mph 95% 0.00 in RA
00:15 71.7 °F 69.6 °F 29.93 in Calm   4.0 mph 93% 0.00 in BKN
00:30 70.9 °F 68.2 °F 29.94 in East 1.0 mph 4.0 mph 91% 0.00 in BKN
00:45 70.5 °F 67.1 °F 29.94 in NNE 2.0 mph 10.0 mph 89% 0.00 in BKN
01:00 70.2 °F 66.5 °F 29.94 in Calm   5.0 mph 88% 0.00 in BKN
01:15 69.7 °F 66.3 °F 29.94 in Calm   2.0 mph 89% 0.00 in BKN
01:30 69.5 °F 65.8 °F 29.95 in Calm   5.0 mph 88% 0.00 in BKN
01:45 69.1 °F 65.4 °F 29.95 in Calm   3.0 mph 88% 0.00 in BKN
02:00 69.1 °F 65.4 °F 29.96 in Calm   4.0 mph 88% 0.00 in BKN
02:15 68.2 °F 64.9 °F 29.97 in Calm   1.0 mph 89% 0.00 in FEW
02:30 68.2 °F 64.5 °F 29.96 in SE 1.0 mph 4.0 mph 88% 0.00 in FEW
02:45 67.7 °F 64.4 °F 29.97 in Calm   4.0 mph 89% 0.00 in FEW
03:00 67.9 °F 64.2 °F 29.97 in Calm   3.0 mph 88% 0.00 in FEW
03:15 67.5 °F 64.1 °F 29.97 in NW 1.0 mph 5.0 mph 89% 0.00 in CLR
03:30 67.1 °F 63.8 °F 29.97 in Calm   2.0 mph 89% 0.00 in CLR
03:45 67.0 °F 63.7 °F 29.98 in Calm   3.0 mph 89% 0.00 in CLR
04:00 67.1 °F 63.4 °F 29.98 in Calm   4.0 mph 88% 0.00 in CLR
04:15 67.0 °F 63.3 °F 29.98 in NNE 2.0 mph 5.0 mph 88% 0.00 in FEW
04:30 66.7 °F 63.0 °F 29.99 in Calm   4.0 mph 88% 0.00 in FEW
04:45 66.2 °F 62.9 °F 29.99 in Calm   1.0 mph 89% 0.00 in FEW
05:00 65.8 °F 62.8 °F 30.00 in Calm   1.0 mph 90% 0.00 in FEW
05:15 65.6 °F 62.6 °F 30.00 in Calm   5.0 mph 90% 0.00 in FEW
05:30 65.8 °F 62.8 °F 30.01 in Calm   2.0 mph 90% 0.00 in FEW
05:45 65.6 °F 62.3 °F 30.01 in Calm   5.0 mph 89% 0.00 in FEW
06:00 65.4 °F 62.4 °F 30.02 in Calm   2.0 mph 90% 0.00 in FEW
06:15 65.2 °F 61.9 °F 30.02 in Calm   2.0 mph 89% 0.00 in CLR
06:30 65.1 °F 61.8 °F 30.02 in Calm   4.0 mph 89% 0.00 in CLR
06:45 64.9 °F 61.6 °F 30.03 in Calm   4.0 mph 89% 0.00 in CLR
07:00 64.8 °F 61.8 °F 30.03 in Calm   4.0 mph 90% 0.00 in CLR
07:15 64.2 °F 61.5 °F 30.03 in Calm     91% 0.00 in CLR
07:45 63.7 °F 61.6 °F 30.05 in Calm     93% 0.00 in CLR
08:00 63.4 °F 61.3 °F 30.05 in Calm     93% 0.00 in CLR
08:15 63.7 °F 61.6 °F 30.06 in Calm     93% 0.00 in CLR
08:30 64.2 °F 61.9 °F 30.06 in NNW 1.0 mph 3.0 mph 92% 0.00 in CLR
09:00 65.6 °F 62.3 °F 30.07 in NNW 1.0 mph 4.0 mph 89% 0.00 in CLR
09:15 66.4 °F 62.4 °F 30.07 in Calm   4.0 mph 87% 0.00 in FEW
09:30 68.2 °F 63.5 °F 30.07 in Calm   4.0 mph 85% 0.00 in FEW
09:45 68.6 °F 63.2 °F 30.08 in NE 1.0 mph 4.0 mph 83% 0.00 in FEW
10:00 69.6 °F 63.1 °F 30.08 in WNW 1.0 mph 4.0 mph 80% 0.00 in FEW
10:15 70.4 °F 64.3 °F 30.08 in Calm   6.0 mph 81% 0.00 in FEW
10:30 70.5 °F 63.3 °F 30.09 in WNW 1.0 mph 5.0 mph 78% 0.00 in FEW
10:45 70.8 °F 63.3 °F 30.08 in WNW 1.0 mph 5.0 mph 77% 0.00 in FEW
11:00 71.1 °F 63.1 °F 30.08 in WNW 2.0 mph 5.0 mph 76% 0.00 in FEW
11:15 71.8 °F 64.2 °F 30.08 in NE 1.0 mph 5.0 mph 77% 0.00 in FEW
11:30 73.0 °F 64.2 °F 30.08 in NNE 3.0 mph 6.0 mph 74% 0.00 in FEW
11:45 72.7 °F 63.5 °F 30.08 in West 1.0 mph 8.0 mph 73% 0.00 in FEW
12:00 73.5 °F 63.5 °F 30.08 in NW 2.0 mph 8.0 mph 71% 0.00 in FEW
12:15 74.5 °F 63.2 °F 30.07 in North 3.0 mph 9.0 mph 68% 0.00 in CLR
12:30 74.8 °F 63.5 °F 30.07 in NW 2.0 mph 9.0 mph 68% 0.00 in CLR
12:45 75.2 °F 63.1 °F 30.06 in WNW 2.0 mph 9.0 mph 66% 0.00 in CLR
13:00 76.3 °F 64.1 °F 30.06 in Calm   9.0 mph 66% 0.00 in CLR
13:15 74.2 °F 63.0 °F 30.06 in NNE 1.0 mph 7.0 mph 68% 0.00 in FEW
13:30 74.2 °F 63.0 °F 30.06 in WNW 2.0 mph 8.0 mph 68% 0.00 in FEW
13:45 74.7 °F 63.0 °F 30.06 in NNE 3.0 mph 6.0 mph 67% 0.00 in FEW
14:00 75.0 °F 63.3 °F 30.05 in North 2.0 mph 6.0 mph 67% 0.00 in FEW
14:15 75.8 °F 63.2 °F 30.05 in NW 1.0 mph 7.0 mph 65% 0.00 in FEW
14:30 76.4 °F 63.3 °F 30.05 in NW 1.0 mph 10.0 mph 64% 0.00 in FEW
14:45 76.8 °F 63.2 °F 30.04 in NW 2.0 mph 7.0 mph 63% 0.00 in FEW
15:00 76.2 °F 63.1 °F 30.05 in NE 2.0 mph 8.0 mph 64% 0.00 in FEW
15:15 76.2 °F 62.3 °F 30.05 in Calm   6.0 mph 62% 0.00 in CLR
15:30 77.6 °F 63.1 °F 30.04 in Calm   5.0 mph 61% 0.00 in CLR
15:45 77.8 °F 62.8 °F 30.04 in NE 1.0 mph 6.0 mph 60% 0.00 in CLR
16:00 77.7 °F 62.7 °F 30.04 in Calm   4.0 mph 60% 0.00 in CLR
16:15 78.3 °F 61.8 °F 30.04 in NW 1.0 mph 7.0 mph 57% 0.00 in CLR
16:30 78.7 °F 61.2 °F 30.04 in Calm   4.0 mph 55% 0.00 in CLR
16:45 79.4 °F 60.8 °F 30.04 in Calm   3.0 mph 53% 0.00 in CLR
17:00 79.1 °F 61.5 °F 30.04 in Calm   4.0 mph 55% 0.00 in CLR
17:15 79.5 °F 62.4 °F 30.04 in West 1.0 mph 3.0 mph 56% 0.00 in CLR
17:45 78.9 °F 62.9 °F 30.05 in Calm   2.0 mph 58% 0.00 in CLR
18:00 78.7 °F 63.6 °F 30.05 in Calm     60% 0.00 in CLR
18:15 74.7 °F 63.0 °F 30.06 in Calm     67% 0.00 in CLR
18:30 72.7 °F 63.2 °F 30.06 in Calm     72% 0.00 in CLR
18:45 70.6 °F 62.6 °F 30.07 in Calm     76% 0.00 in CLR
19:00 69.1 °F 62.3 °F 30.07 in Calm     79% 0.00 in CLR
19:15 68.1 °F 62.0 °F 30.08 in Calm     81% 0.00 in CLR
19:30 67.2 °F 62.6 °F 30.08 in Calm     85% 0.00 in CLR
19:45 66.5 °F 61.8 °F 30.09 in Calm     85% 0.00 in CLR
20:00 66.2 °F 61.5 °F 30.09 in Calm     85% 0.00 in CLR
20:15 66.0 °F 61.7 °F 30.09 in Calm     86% 0.00 in CLR
20:30 66.2 °F 61.2 °F 30.09 in Calm     84% 0.00 in CLR
20:45 66.3 °F 61.0 °F 30.09 in Calm     83% 0.00 in CLR
21:00 65.7 °F 61.1 °F 30.10 in Calm     85% 0.00 in CLR
21:15 67.7 °F 61.0 °F 30.10 in Calm   1.0 mph 79% 0.00 in CLR
21:30 67.3 °F 60.9 °F 30.10 in Calm   2.0 mph 80% 0.00 in CLR
21:45 66.7 °F 60.7 °F 30.11 in Calm   1.0 mph 81% 0.00 in CLR
22:00 67.4 °F 60.7 °F 30.11 in Calm   2.0 mph 79% 0.00 in CLR
22:15 67.7 °F 61.7 °F 30.11 in Calm   2.0 mph 81% 0.00 in CLR
22:30 66.2 °F 60.9 °F 30.11 in Calm   2.0 mph 83% 0.00 in CLR
22:45 64.9 °F 60.7 °F 30.11 in Calm   1.0 mph 86% 0.00 in CLR
23:00 64.3 °F 60.4 °F 30.11 in Calm     87% 0.00 in CLR
23:30 63.6 °F 60.0 °F 30.11 in Calm     88% 0.00 in CLR
23:45 63.3 °F 59.7 °F 30.11 in Calm     88% 0.00 in CLR
TarryTown NY Weather
Compliments of Weather Underground - 1.5 mb